createdAt,value
2023-08-05T00:00:02.198Z,4.77
2023-08-05T00:02:29.856Z,5.60
2023-08-05T00:04:57.868Z,4.60
2023-08-05T00:07:25.484Z,3.97
2023-08-05T00:09:53.260Z,5.10
2023-08-05T00:12:20.891Z,4.40
2023-08-05T00:14:50.062Z,4.57
2023-08-05T00:17:17.819Z,4.67
2023-08-05T00:19:45.749Z,4.67
2023-08-05T00:22:13.398Z,4.50
2023-08-05T00:24:41.884Z,4.80
2023-08-05T00:27:09.565Z,4.60
2023-08-05T00:29:37.435Z,4.60
2023-08-05T00:32:07.244Z,4.90
2023-08-05T00:34:35.910Z,4.70
2023-08-05T00:37:03.869Z,4.23
2023-08-05T00:39:31.728Z,5.17
2023-08-05T00:41:59.366Z,5.53
2023-08-05T00:44:27.170Z,5.20
2023-08-05T00:46:54.857Z,5.30
2023-08-05T00:49:24.081Z,5.00
2023-08-05T00:51:51.699Z,4.70
2023-08-05T00:54:19.529Z,5.07
2023-08-05T00:56:47.344Z,4.87
2023-08-05T00:59:15.152Z,4.40
2023-08-05T01:01:42.907Z,4.80
2023-08-05T01:04:10.619Z,4.73
2023-08-05T01:06:39.709Z,4.87
2023-08-05T01:09:07.413Z,5.20
2023-08-05T01:11:35.050Z,5.00
2023-08-05T01:14:03.837Z,4.70
2023-08-05T01:16:31.460Z,4.43
2023-08-05T01:18:59.257Z,5.33
2023-08-05T01:21:33.089Z,5.30
2023-08-05T01:24:10.493Z,5.43
2023-08-05T01:26:39.466Z,5.40
2023-08-05T01:29:07.313Z,5.60
2023-08-05T01:31:34.986Z,5.37
2023-08-05T01:34:02.847Z,5.07
2023-08-05T01:36:31.567Z,5.63
2023-08-05T01:38:59.232Z,5.23
2023-08-05T01:41:27.071Z,5.70
2023-08-05T01:43:56.097Z,5.90
2023-08-05T01:46:24.021Z,5.33
2023-08-05T01:48:51.795Z,5.17
2023-08-05T01:51:19.622Z,5.70
2023-08-05T01:53:47.238Z,5.33
2023-08-05T01:56:14.913Z,5.87
2023-08-05T01:58:42.740Z,5.50
2023-08-05T02:01:11.816Z,5.93
2023-08-05T02:03:39.828Z,6.20
2023-08-05T02:08:41.475Z,5.23
2023-08-05T02:11:09.129Z,6.07
2023-08-05T02:13:36.874Z,6.17
2023-08-05T02:16:05.518Z,5.40
2023-08-05T02:18:34.682Z,5.87
2023-08-05T02:21:02.362Z,6.60
2023-08-05T02:23:30.338Z,5.47
2023-08-05T02:25:57.973Z,5.93
2023-08-05T02:28:25.807Z,5.70
2023-08-05T02:30:53.533Z,5.97
2023-08-05T02:33:21.376Z,5.77
2023-08-05T02:35:50.422Z,5.80
2023-08-05T02:38:18.212Z,5.50
2023-08-05T02:40:45.876Z,5.50
2023-08-05T02:43:13.748Z,5.77
2023-08-05T02:45:42.294Z,5.30
2023-08-05T02:48:10.215Z,5.50
2023-08-05T02:50:37.890Z,5.90
2023-08-05T02:53:07.139Z,4.67
2023-08-05T02:55:34.789Z,5.60
2023-08-05T02:58:02.598Z,4.60
2023-08-05T03:00:30.283Z,4.73
2023-08-05T03:02:58.135Z,5.43
2023-08-05T03:05:25.948Z,6.17
2023-08-05T03:07:54.900Z,6.30
2023-08-05T03:10:24.072Z,6.80
2023-08-05T03:12:51.718Z,6.83
2023-08-05T03:15:19.456Z,7.67
2023-08-05T03:17:47.215Z,7.03
2023-08-05T03:20:24.902Z,7.00
2023-08-05T03:22:53.742Z,7.37
2023-08-05T03:25:22.026Z,6.97
2023-08-05T03:27:51.334Z,6.87
2023-08-05T03:30:19.219Z,8.03
2023-08-05T03:32:48.547Z,6.83
2023-08-05T03:35:16.419Z,7.43
2023-08-05T03:37:45.208Z,8.33
2023-08-05T03:40:13.419Z,7.30
2023-08-05T03:42:41.583Z,7.53
2023-08-05T03:45:12.140Z,6.30
2023-08-05T03:47:40.057Z,8.13
2023-08-05T03:50:10.246Z,7.77
2023-08-05T03:52:39.462Z,6.10
2023-08-05T03:55:09.928Z,6.80
2023-08-05T03:57:37.776Z,5.80
2023-08-05T04:00:06.357Z,6.17
2023-08-05T04:02:35.632Z,6.50
2023-08-05T04:05:04.784Z,6.23
2023-08-05T04:07:32.693Z,6.70
2023-08-05T04:10:00.628Z,6.17
2023-08-05T04:12:28.402Z,6.67
2023-08-05T04:14:59.823Z,6.37
2023-08-05T04:17:27.595Z,6.97
2023-08-05T04:19:57.019Z,6.77
2023-08-05T04:22:26.488Z,6.30
2023-08-05T04:24:54.660Z,6.43
2023-08-05T04:27:23.007Z,6.67
2023-08-05T04:29:51.145Z,5.80
2023-08-05T04:32:18.939Z,6.30
2023-08-05T04:34:46.779Z,5.60
2023-08-05T04:37:19.073Z,6.27
2023-08-05T04:39:47.046Z,9.53
2023-08-05T04:42:14.691Z,7.60
2023-08-05T04:44:43.086Z,7.33
2023-08-05T04:47:10.710Z,7.57
2023-08-05T04:49:39.963Z,7.20
2023-08-05T04:52:08.294Z,6.43
2023-08-05T04:54:40.216Z,6.23
2023-08-05T04:57:08.290Z,6.53
2023-08-05T04:59:36.134Z,7.10
2023-08-05T05:02:03.850Z,7.33
2023-08-05T05:04:31.670Z,8.20
2023-08-05T05:06:59.948Z,7.67
2023-08-05T05:09:27.599Z,8.40
2023-08-05T05:11:56.751Z,7.67
2023-08-05T05:14:24.623Z,7.40
2023-08-05T05:16:53.222Z,7.47
2023-08-05T05:19:21.064Z,8.17
2023-08-05T05:21:48.908Z,7.30
2023-08-05T05:24:17.016Z,8.23
2023-08-05T05:26:46.769Z,8.50
2023-08-05T05:29:15.786Z,8.17
2023-08-05T05:31:43.455Z,8.70
2023-08-05T05:34:11.363Z,8.80
2023-08-05T05:36:39.412Z,8.17
2023-08-05T05:39:07.250Z,10.47
2023-08-05T05:41:34.913Z,8.93
2023-08-05T05:44:05.135Z,12.30
2023-08-05T05:46:34.346Z,7.80
2023-08-05T05:49:05.024Z,6.83
2023-08-05T05:51:32.668Z,7.57
2023-08-05T05:54:00.412Z,8.20
2023-08-05T05:56:28.211Z,8.40
2023-08-05T05:58:56.064Z,7.97
2023-08-05T06:01:24.515Z,8.47
2023-08-05T06:03:53.703Z,9.30
2023-08-05T06:06:21.470Z,8.90
2023-08-05T06:08:49.260Z,9.77
2023-08-05T06:11:17.546Z,9.10
2023-08-05T06:13:45.206Z,12.33
2023-08-05T06:16:12.949Z,11.33
2023-08-05T06:18:40.703Z,11.57
2023-08-05T06:21:09.893Z,12.03
2023-08-05T06:23:37.720Z,11.57
2023-08-05T06:26:05.506Z,12.43
2023-08-05T06:28:33.155Z,14.30
2023-08-05T06:31:00.871Z,15.20
2023-08-05T06:33:28.639Z,14.33
2023-08-05T06:35:56.286Z,15.20
2023-08-05T06:38:26.086Z,18.90
2023-08-05T06:40:53.765Z,15.43
2023-08-05T06:43:21.550Z,14.27
2023-08-05T06:45:49.201Z,14.70
2023-08-05T06:48:17.070Z,16.07
2023-08-05T06:50:44.715Z,16.23
2023-08-05T06:53:12.630Z,17.27
2023-08-05T06:55:41.660Z,27.08
2023-08-05T06:58:09.420Z,22.83
2023-08-05T07:00:37.287Z,19.13
2023-08-05T07:03:05.400Z,18.60
2023-08-05T07:05:33.200Z,20.30
2023-08-05T07:08:00.884Z,18.33
2023-08-05T07:10:28.627Z,17.75
2023-08-05T07:12:57.607Z,17.55
2023-08-05T07:15:25.400Z,16.33
2023-08-05T07:17:53.266Z,15.05
2023-08-05T07:20:21.079Z,14.90
2023-08-05T07:22:48.715Z,14.05
2023-08-05T07:25:16.704Z,13.15
2023-08-05T07:27:44.324Z,12.52
2023-08-05T07:30:13.986Z,13.45
2023-08-05T07:32:41.821Z,13.23
2023-08-05T07:35:11.288Z,14.10
2023-08-05T07:37:39.095Z,15.35
2023-08-05T07:40:13.452Z,15.63
2023-08-05T07:42:41.329Z,17.38
2023-08-05T07:45:15.274Z,16.60
2023-08-05T07:47:45.103Z,17.25
2023-08-05T07:50:15.470Z,17.15
2023-08-05T07:52:43.860Z,16.90
2023-08-05T07:55:11.701Z,16.10
2023-08-05T07:57:41.423Z,15.63
2023-08-05T08:00:11.171Z,27.67
2023-08-05T08:02:39.397Z,15.65
2023-08-05T08:05:09.483Z,16.00
2023-08-05T08:07:37.573Z,17.58
2023-08-05T08:10:06.302Z,18.17
2023-08-05T08:12:34.174Z,17.15
2023-08-05T08:15:03.472Z,18.23
2023-08-05T08:17:37.272Z,18.63
2023-08-05T08:20:19.113Z,20.25
2023-08-05T08:22:47.239Z,18.60
2023-08-05T08:25:18.035Z,19.15
2023-08-05T08:27:47.212Z,18.38
2023-08-05T08:30:15.156Z,18.15
2023-08-05T08:32:46.842Z,19.02
2023-08-05T08:35:22.446Z,20.27
2023-08-05T08:37:50.326Z,20.02
2023-08-05T08:40:18.655Z,19.75
2023-08-05T08:42:47.316Z,18.52
2023-08-05T08:45:17.546Z,18.67
2023-08-05T08:47:45.397Z,17.45
2023-08-05T08:50:13.290Z,16.13
2023-08-05T08:52:42.938Z,15.05
2023-08-05T08:55:11.226Z,14.68
2023-08-05T08:57:38.936Z,14.63
2023-08-05T09:00:08.082Z,13.40
2023-08-05T09:02:36.275Z,13.68
2023-08-05T09:05:04.456Z,13.43
2023-08-05T09:07:33.413Z,12.48
2023-08-05T09:10:06.453Z,12.40
2023-08-05T09:12:35.094Z,13.68
2023-08-05T09:15:03.024Z,12.45
2023-08-05T09:17:38.601Z,12.88
2023-08-05T09:20:13.320Z,14.60
2023-08-05T09:22:40.942Z,12.40
2023-08-05T09:25:10.641Z,12.02
2023-08-05T09:27:47.372Z,12.05
2023-08-05T09:30:18.480Z,11.93
2023-08-05T09:32:46.963Z,11.45
2023-08-05T09:35:14.696Z,11.90
2023-08-05T09:37:42.366Z,12.05
2023-08-05T09:40:22.822Z,12.30
2023-08-05T09:42:51.503Z,12.45
2023-08-05T09:45:19.502Z,12.18
2023-08-05T09:47:48.708Z,12.40
2023-08-05T09:50:18.176Z,12.23
2023-08-05T09:52:47.134Z,12.05
2023-08-05T09:55:15.866Z,11.88
2023-08-05T09:57:45.083Z,12.00
2023-08-05T10:00:15.016Z,11.93
2023-08-05T10:02:43.500Z,11.35
2023-08-05T10:05:11.536Z,10.77
2023-08-05T10:07:41.005Z,12.82
2023-08-05T10:10:10.091Z,10.52
2023-08-05T10:12:40.426Z,10.73
2023-08-05T10:15:10.213Z,10.90
2023-08-05T10:17:39.577Z,10.57
2023-08-05T10:20:09.804Z,10.32
2023-08-05T10:22:38.052Z,10.18
2023-08-05T10:25:06.629Z,11.00
2023-08-05T10:27:38.509Z,9.07
2023-08-05T10:30:12.216Z,9.55
2023-08-05T10:33:01.059Z,8.65
2023-08-05T10:35:29.948Z,9.02
2023-08-05T10:38:17.042Z,9.93
2023-08-05T10:40:48.423Z,10.18
2023-08-05T10:43:40.177Z,8.65
2023-08-05T10:46:13.981Z,9.25
2023-08-05T10:48:42.955Z,6.18
2023-08-05T10:51:11.045Z,5.93
2023-08-05T10:53:39.640Z,6.70
2023-08-05T10:56:10.408Z,6.57
2023-08-05T10:58:38.239Z,7.18
2023-08-05T11:01:06.944Z,6.72
2023-08-05T11:03:43.465Z,7.35
2023-08-05T11:06:11.952Z,7.53
2023-08-05T11:08:40.338Z,6.75
2023-08-05T11:11:09.327Z,7.47
2023-08-05T11:13:37.811Z,6.47
2023-08-05T11:16:09.575Z,6.15
2023-08-05T11:18:37.410Z,5.97
2023-08-05T11:21:07.332Z,6.05
2023-08-05T11:23:35.108Z,5.75
2023-08-05T11:26:03.124Z,5.60
2023-08-05T11:28:33.615Z,5.63
2023-08-05T11:31:02.942Z,4.93
2023-08-05T11:33:30.671Z,5.80
2023-08-05T11:35:58.766Z,5.03
2023-08-05T11:38:27.877Z,4.95
2023-08-05T11:40:56.518Z,5.20
2023-08-05T11:43:24.724Z,5.15
2023-08-05T11:45:52.966Z,5.25
2023-08-05T11:48:21.514Z,6.45
2023-08-05T11:50:49.230Z,6.85
2023-08-05T11:53:17.885Z,6.93
2023-08-05T11:55:47.555Z,6.53
2023-08-05T11:58:15.407Z,6.90
2023-08-05T12:00:47.175Z,6.90
2023-08-05T12:03:15.746Z,7.20
2023-08-05T12:05:44.738Z,7.00
2023-08-05T12:08:12.504Z,6.22
2023-08-05T12:10:40.248Z,6.82
2023-08-05T12:13:09.867Z,6.45
2023-08-05T12:15:38.433Z,7.38
2023-08-05T12:18:07.206Z,6.90
2023-08-05T12:20:35.786Z,6.82
2023-08-05T12:23:04.226Z,7.63
2023-08-05T12:25:32.663Z,6.38
2023-08-05T12:28:02.667Z,7.57
2023-08-05T12:30:35.478Z,7.15
2023-08-05T12:33:05.939Z,6.20
2023-08-05T12:35:35.269Z,7.78
2023-08-05T12:38:03.086Z,6.97
2023-08-05T12:40:30.772Z,6.90
2023-08-05T12:42:58.432Z,6.63
2023-08-05T12:45:26.072Z,6.68
2023-08-05T12:47:55.254Z,5.93
2023-08-05T12:50:22.901Z,6.88
2023-08-05T12:52:50.591Z,5.90
2023-08-05T12:55:18.334Z,6.07
2023-08-05T12:57:46.060Z,5.68
2023-08-05T13:00:14.883Z,6.25
2023-08-05T13:02:42.687Z,5.97
2023-08-05T13:05:11.839Z,5.43
2023-08-05T13:07:39.636Z,6.03
2023-08-05T13:10:09.186Z,5.47
2023-08-05T13:12:37.976Z,5.32
2023-08-05T13:15:06.294Z,5.28
2023-08-05T13:17:34.172Z,5.32
2023-08-05T13:20:01.955Z,5.50
2023-08-05T13:22:31.010Z,5.38
2023-08-05T13:25:00.541Z,5.45
2023-08-05T13:27:29.323Z,5.65
2023-08-05T13:29:57.252Z,5.70
2023-08-05T13:32:25.054Z,5.88
2023-08-05T13:34:53.613Z,5.55
2023-08-05T13:37:21.466Z,5.22
2023-08-05T13:39:52.094Z,5.38
2023-08-05T13:42:20.830Z,5.65
2023-08-05T13:44:48.572Z,3.05
2023-08-05T13:47:16.348Z,2.40
2023-08-05T13:49:44.047Z,3.08
2023-08-05T13:52:11.938Z,2.53
2023-08-05T13:54:39.617Z,2.70
2023-08-05T13:57:08.894Z,3.92
2023-08-05T13:59:36.544Z,3.75
2023-08-05T14:02:04.406Z,4.43
2023-08-05T14:04:32.327Z,3.50
2023-08-05T14:07:00.017Z,3.75
2023-08-05T14:09:27.694Z,3.47
2023-08-05T14:11:55.473Z,3.60
2023-08-05T14:14:25.591Z,3.75
2023-08-05T14:16:53.402Z,3.50
2023-08-05T14:19:21.418Z,3.78
2023-08-05T14:21:50.404Z,3.65
2023-08-05T14:24:18.526Z,4.65
2023-08-05T14:26:47.705Z,4.70
2023-08-05T14:29:21.431Z,4.22
2023-08-05T14:31:51.354Z,4.18
2023-08-05T14:34:19.491Z,3.60
2023-08-05T14:36:48.520Z,3.42
2023-08-05T14:39:17.031Z,4.40
2023-08-05T14:41:45.649Z,4.03
2023-08-05T14:44:13.651Z,3.40
2023-08-05T14:46:42.776Z,3.28
2023-08-05T14:49:12.178Z,4.40
2023-08-05T14:51:40.335Z,4.03
2023-08-05T14:54:10.189Z,4.45
2023-08-05T14:56:38.012Z,4.10
2023-08-05T14:59:06.146Z,6.60
2023-08-05T15:01:34.078Z,4.00
2023-08-05T15:04:02.205Z,4.13
2023-08-05T15:06:31.581Z,4.50
2023-08-05T15:08:59.624Z,4.40
2023-08-05T15:11:27.664Z,4.03
2023-08-05T15:13:55.521Z,4.03
2023-08-05T15:16:23.377Z,4.72
2023-08-05T15:18:51.283Z,4.38
2023-08-05T15:21:19.060Z,4.20
2023-08-05T15:23:48.578Z,4.50
2023-08-05T15:26:22.647Z,4.45
2023-08-05T15:28:50.520Z,4.55
2023-08-05T15:31:19.731Z,5.30
2023-08-05T15:33:48.068Z,4.40
2023-08-05T15:36:16.199Z,4.55
2023-08-05T15:38:44.098Z,4.68
2023-08-05T15:41:13.449Z,4.20
2023-08-05T15:43:41.440Z,4.30
2023-08-05T15:46:09.474Z,4.47
2023-08-05T15:48:37.434Z,4.10
2023-08-05T15:51:05.506Z,4.30
2023-08-05T15:53:33.730Z,4.60
2023-08-05T15:56:01.834Z,5.40
2023-08-05T15:58:31.678Z,6.53
2023-08-05T16:01:02.703Z,6.20
2023-08-05T16:03:30.787Z,4.28
2023-08-05T16:06:03.526Z,3.75
2023-08-05T16:08:33.216Z,5.07
2023-08-05T16:11:03.244Z,5.13
2023-08-05T16:13:33.869Z,4.13
2023-08-05T16:16:13.083Z,4.72
2023-08-05T16:18:42.703Z,4.18
2023-08-05T16:21:18.317Z,4.25
2023-08-05T16:23:58.693Z,4.50
2023-08-05T16:26:34.807Z,4.03
2023-08-05T16:29:06.924Z,3.80
2023-08-05T16:31:35.138Z,3.53
2023-08-05T16:34:04.391Z,3.80
2023-08-05T16:36:32.602Z,4.15
2023-08-05T16:39:08.969Z,4.20
2023-08-05T16:41:44.518Z,4.20
2023-08-05T16:44:28.579Z,4.20
2023-08-05T16:47:15.817Z,4.53
2023-08-05T16:49:49.109Z,3.97
2023-08-05T16:52:18.174Z,4.43
2023-08-05T16:54:47.226Z,3.95
2023-08-05T16:57:16.437Z,3.85
2023-08-05T16:59:45.806Z,4.22
2023-08-05T17:02:13.880Z,3.50
2023-08-05T17:04:41.831Z,3.85
2023-08-05T17:07:09.768Z,4.50
2023-08-05T17:09:37.976Z,4.33
2023-08-05T17:12:06.216Z,4.20
2023-08-05T17:14:34.167Z,4.30
2023-08-05T17:17:05.530Z,4.40
2023-08-05T17:19:34.962Z,3.97
2023-08-05T17:22:03.037Z,4.32
2023-08-05T17:24:31.313Z,5.30
2023-08-05T17:27:00.185Z,4.50
2023-08-05T17:29:28.193Z,4.40
2023-08-05T17:31:57.454Z,4.35
2023-08-05T17:34:26.684Z,4.43
2023-08-05T17:36:54.908Z,4.20
2023-08-05T17:39:22.935Z,4.20
2023-08-05T17:41:51.226Z,4.53
2023-08-05T17:44:19.220Z,3.93
2023-08-05T17:46:47.757Z,4.43
2023-08-05T17:49:15.623Z,4.50
2023-08-05T17:51:47.289Z,5.30
2023-08-05T17:54:15.708Z,4.67
2023-08-05T17:56:45.801Z,3.60
2023-08-05T17:59:13.951Z,4.20
2023-08-05T18:01:42.432Z,4.03
2023-08-05T18:04:11.278Z,4.00
2023-08-05T18:06:39.551Z,5.00
2023-08-05T18:09:09.119Z,4.80
2023-08-05T18:11:37.337Z,4.00
2023-08-05T18:14:05.325Z,3.93
2023-08-05T18:16:33.239Z,4.40
2023-08-05T18:19:01.263Z,4.40
2023-08-05T18:21:28.962Z,4.30
2023-08-05T18:23:57.916Z,3.60
2023-08-05T18:26:26.991Z,4.67
2023-08-05T18:28:54.955Z,6.13
2023-08-05T18:31:22.855Z,4.23
2023-08-05T18:33:52.326Z,4.13
2023-08-05T18:36:20.392Z,4.93
2023-08-05T18:38:48.230Z,4.10
2023-08-05T18:41:16.182Z,4.40
2023-08-05T18:43:45.854Z,4.30
2023-08-05T18:46:13.912Z,3.90
2023-08-05T18:48:41.950Z,3.80
2023-08-05T18:51:09.876Z,5.63
2023-08-05T18:53:40.929Z,5.80
2023-08-05T18:56:10.224Z,4.67
2023-08-05T18:58:39.220Z,4.40
2023-08-05T19:01:10.039Z,4.50
2023-08-05T19:03:38.506Z,4.30
2023-08-05T19:06:06.545Z,3.83
2023-08-05T19:08:34.356Z,4.20
2023-08-05T19:11:02.289Z,4.20
2023-08-05T19:13:30.154Z,4.67
2023-08-05T19:16:01.615Z,4.40
2023-08-05T19:18:35.922Z,4.30
2023-08-05T19:21:05.433Z,4.47
2023-08-05T19:23:33.299Z,4.20
2023-08-05T19:26:01.919Z,4.20
2023-08-05T19:28:31.650Z,4.07
2023-08-05T19:30:59.560Z,3.90
2023-08-05T19:33:27.509Z,4.60
2023-08-05T19:35:56.869Z,4.70
2023-08-05T19:38:24.883Z,4.23
2023-08-05T19:40:58.493Z,4.53
2023-08-05T19:43:26.498Z,4.70
2023-08-05T19:45:54.362Z,4.70
2023-08-05T19:48:22.328Z,4.63
2023-08-05T19:50:56.635Z,3.50
2023-08-05T19:53:36.605Z,4.20
2023-08-05T19:56:04.844Z,3.53
2023-08-05T19:58:32.772Z,3.90
2023-08-05T20:01:01.204Z,3.60
2023-08-05T20:03:29.904Z,4.27
2023-08-05T20:05:57.706Z,3.93
2023-08-05T20:08:25.409Z,4.03
2023-08-05T20:10:54.707Z,3.87
2023-08-05T20:13:22.649Z,4.00
2023-08-05T20:15:50.879Z,3.87
2023-08-05T20:18:21.430Z,3.43
2023-08-05T20:20:49.604Z,3.90
2023-08-05T20:23:19.129Z,3.60
2023-08-05T20:25:46.811Z,2.87
2023-08-05T20:28:16.049Z,3.53
2023-08-05T20:30:43.815Z,3.17
2023-08-05T20:33:11.725Z,3.27
2023-08-05T20:35:39.513Z,3.10
2023-08-05T20:38:07.429Z,2.90
2023-08-05T20:40:37.904Z,3.10
2023-08-05T20:43:05.724Z,3.33
2023-08-05T20:45:38.421Z,3.80
2023-08-05T20:48:06.439Z,3.20
2023-08-05T20:50:34.619Z,3.27
2023-08-05T20:53:02.621Z,3.13
2023-08-05T20:55:30.412Z,3.30
2023-08-05T20:57:58.096Z,3.80
2023-08-05T21:00:25.864Z,8.63
2023-08-05T21:02:57.232Z,4.10
2023-08-05T21:05:26.298Z,3.80
2023-08-05T21:07:54.134Z,4.37
2023-08-05T21:10:25.087Z,3.97
2023-08-05T21:12:52.930Z,3.90
2023-08-05T21:15:20.655Z,4.30
2023-08-05T21:17:48.390Z,4.00
2023-08-05T21:20:17.678Z,4.20
2023-08-05T21:22:45.381Z,4.60
2023-08-05T21:25:13.146Z,4.07
2023-08-05T21:27:41.288Z,4.13
2023-08-05T21:30:09.917Z,4.40
2023-08-05T21:32:37.608Z,3.37
2023-08-05T21:35:06.353Z,3.87
2023-08-05T21:37:35.370Z,3.60
2023-08-05T21:40:03.198Z,3.47
2023-08-05T21:42:30.857Z,3.73
2023-08-05T21:44:58.604Z,3.90
2023-08-05T21:47:26.318Z,3.90
2023-08-05T21:49:54.150Z,4.17
2023-08-05T21:52:21.885Z,3.73
2023-08-05T21:54:51.316Z,3.27
2023-08-05T21:57:19.006Z,3.57
2023-08-05T21:59:46.838Z,3.53
2023-08-05T22:02:14.618Z,3.60
2023-08-05T22:04:44.310Z,3.50
2023-08-05T22:07:14.673Z,3.53
2023-08-05T22:09:45.125Z,3.73
2023-08-05T22:12:14.286Z,3.90
2023-08-05T22:14:43.222Z,3.83
2023-08-05T22:17:10.907Z,3.97
2023-08-05T22:19:39.121Z,3.83
2023-08-05T22:22:07.695Z,3.73
2023-08-05T22:24:41.623Z,3.27
2023-08-05T22:27:10.205Z,3.57
2023-08-05T22:29:39.461Z,3.40
2023-08-05T22:32:08.127Z,3.40
2023-08-05T22:34:36.264Z,3.63
2023-08-05T22:37:04.542Z,4.07
2023-08-05T22:39:32.433Z,3.50
2023-08-05T22:42:00.081Z,3.27
2023-08-05T22:44:27.875Z,3.37
2023-08-05T22:46:57.187Z,3.43
2023-08-05T22:49:24.925Z,3.00
2023-08-05T22:51:52.654Z,3.07
2023-08-05T22:54:20.629Z,3.23
2023-08-05T22:56:48.359Z,2.77
2023-08-05T22:59:16.255Z,3.27
2023-08-05T23:01:43.988Z,3.30
2023-08-05T23:04:13.093Z,3.40
2023-08-05T23:06:40.789Z,3.00
2023-08-05T23:09:08.696Z,3.07
2023-08-05T23:11:36.371Z,3.30
2023-08-05T23:14:04.242Z,3.30
2023-08-05T23:16:31.959Z,2.87
2023-08-05T23:18:59.728Z,3.17
2023-08-05T23:21:30.652Z,3.00
2023-08-05T23:23:59.057Z,3.07
2023-08-05T23:26:27.536Z,3.30
2023-08-05T23:28:59.208Z,3.00
2023-08-05T23:31:27.200Z,2.90
2023-08-05T23:33:55.207Z,3.47
2023-08-05T23:36:23.220Z,3.03
2023-08-05T23:38:52.254Z,3.30
2023-08-05T23:41:19.950Z,2.80
2023-08-05T23:43:47.589Z,2.93
2023-08-05T23:46:15.554Z,2.67
2023-08-05T23:48:43.268Z,2.87
2023-08-05T23:51:11.067Z,2.90
2023-08-05T23:53:38.729Z,2.90
2023-08-05T23:56:07.904Z,3.20
2023-08-05T23:58:35.600Z,2.90
